Letona, Arkansas
Current Conditions -  °F | °C
As of 11:56 AM on Sunday 28 Dec 2014 (Local Time) from KSRC Reporting Station
Few Clouds Few Clouds  
Wind Chill: 33°   Ceiling: Unl
Heat Index: 38°   Visibility: 10mi
Dew Point: 31°   Wind: 7mph
Humidity: 76%   Direction: 350°N
Pressure: 30.23"   Gusts: NA
Location:  35.36°N, 91.83°W
Report Text: KSRC 281756Z AUTO 35006KT 10SM FEW017 03/M01 A3023 RMK AO2 SLP245 T00331006 10033 20017 58012 TSNO
Loading
Personal Weather Stations






























Interactive Weather Map New forecast layout! Learn more

10-Day Weather Forecast

Advertisements
Track Severe Weather on mobile